Portada
METAR-TAF:

METAR-TAF

Aeropuertos :

Aeropuerto Internacional de Uzhgorod

Úzhgorod, Ucrania

latitud: 48-38-05N, longitud: 022-15-53E, altitud: 117 m

Observación

El informe se hizo hace 38 minutos, a las 10:30 UTC
Viento 8 kt del este-sureste, variando entre este-noreste y sur
Temperatura 7°C
Humedad 70%
Presión 1020 hPa
Visibilidad 10 km o más

METAR: UKLU 191030Z 11004MPS 060V170 9999 NSC 07/02 Q1020 R10/090070 NOSIG

Hora: 13:08 (11:08 UTC)

Pronóstico

El informe se hizo hace 3 horas y 0 minutos, a las 08:08 UTC
Pronóstico válido del 19 a las 09 UTC al 19 a las 18 UTC
Viento 2 kt con dirección variable
Visibilidad 10 km o más
Nubes dispersas a una altura de 4000 ft

TAF: UKLU 190808Z 1909/1918 VRB01MPS 9999 SCT040 TX07/1914Z TN05/1909Z

Observaciones y pronósticos meteorológicos de más de 4000 aeropuertos (mensajes METAR y TAF).

Los puntos amarillos y rojos representan las estaciones disponibles.

Ponga el ratón en el punto deseado para ver el nombre de la estación.

Haga clic para ver las observaciones y los pronósticos meteorológicos.

Para cambiar el mapa : haga clic en los botones verdes con una cruz de color negro para hacer un zoom, en el botón verde con un guión para alejar o en las flechas verdes para mapas adyacentes.


METAR-TAF: